sensor_id;sensor_type;location;lat;lon;timestamp;temperature;humidity
6078;DHT22;3067;49.470;10.394;2024-03-22T00:01:44;8.20;62.50
6078;DHT22;3067;49.470;10.394;2024-03-22T00:04:10;8.20;62.40
6078;DHT22;3067;49.470;10.394;2024-03-22T00:06:37;8.20;62.30
6078;DHT22;3067;49.470;10.394;2024-03-22T00:09:03;8.20;61.90
6078;DHT22;3067;49.470;10.394;2024-03-22T00:11:32;8.20;61.60
6078;DHT22;3067;49.470;10.394;2024-03-22T00:13:58;8.20;61.50
6078;DHT22;3067;49.470;10.394;2024-03-22T00:16:25;8.20;61.40
6078;DHT22;3067;49.470;10.394;2024-03-22T00:18:51;8.10;61.60
6078;DHT22;3067;49.470;10.394;2024-03-22T00:21:18;8.00;61.90
6078;DHT22;3067;49.470;10.394;2024-03-22T00:23:45;8.00;62.40
6078;DHT22;3067;49.470;10.394;2024-03-22T00:26:12;8.00;62.80
6078;DHT22;3067;49.470;10.394;2024-03-22T00:28:40;7.80;63.30
6078;DHT22;3067;49.470;10.394;2024-03-22T00:31:08;7.80;63.50
6078;DHT22;3067;49.470;10.394;2024-03-22T00:33:34;7.70;63.70
6078;DHT22;3067;49.470;10.394;2024-03-22T00:36:01;7.60;63.90
6078;DHT22;3067;49.470;10.394;2024-03-22T00:38:27;7.60;63.90
6078;DHT22;3067;49.470;10.394;2024-03-22T00:40:54;7.50;63.90
6078;DHT22;3067;49.470;10.394;2024-03-22T00:43:21;7.50;64.00
6078;DHT22;3067;49.470;10.394;2024-03-22T00:45:49;7.50;63.90
6078;DHT22;3067;49.470;10.394;2024-03-22T00:48:15;7.50;63.70
6078;DHT22;3067;49.470;10.394;2024-03-22T00:50:43;7.40;64.20
6078;DHT22;3067;49.470;10.394;2024-03-22T00:53:09;7.30;64.30
6078;DHT22;3067;49.470;10.394;2024-03-22T00:55:37;7.30;64.30
6078;DHT22;3067;49.470;10.394;2024-03-22T00:58:03;7.20;64.30
6078;DHT22;3067;49.470;10.394;2024-03-22T01:00:30;7.20;64.00
6078;DHT22;3067;49.470;10.394;2024-03-22T01:02:58;7.20;63.60
6078;DHT22;3067;49.470;10.394;2024-03-22T01:05:25;7.00;63.60
6078;DHT22;3067;49.470;10.394;2024-03-22T01:07:51;7.00;63.60
6078;DHT22;3067;49.470;10.394;2024-03-22T01:10:19;6.80;64.00
6078;DHT22;3067;49.470;10.394;2024-03-22T01:12:45;6.70;64.30
6078;DHT22;3067;49.470;10.394;2024-03-22T01:15:12;6.70;64.40
6078;DHT22;3067;49.470;10.394;2024-03-22T01:17:38;6.70;64.30
6078;DHT22;3067;49.470;10.394;2024-03-22T01:20:07;6.60;63.90
6078;DHT22;3067;49.470;10.394;2024-03-22T01:22:33;6.60;63.90
6078;DHT22;3067;49.470;10.394;2024-03-22T01:25:00;6.60;63.70
6078;DHT22;3067;49.470;10.394;2024-03-22T01:27:26;6.60;63.70
6078;DHT22;3067;49.470;10.394;2024-03-22T01:29:53;6.60;63.70
6078;DHT22;3067;49.470;10.394;2024-03-22T01:32:19;6.70;63.70
6078;DHT22;3067;49.470;10.394;2024-03-22T01:34:46;6.70;63.90
6078;DHT22;3067;49.470;10.394;2024-03-22T01:37:14;6.70;63.50
6078;DHT22;3067;49.470;10.394;2024-03-22T01:39:41;6.70;63.20
6078;DHT22;3067;49.470;10.394;2024-03-22T01:42:07;6.60;63.40
6078;DHT22;3067;49.470;10.394;2024-03-22T01:44:34;6.70;63.20
6078;DHT22;3067;49.470;10.394;2024-03-22T01:47:01;6.60;63.20
6078;DHT22;3067;49.470;10.394;2024-03-22T01:49:28;6.70;63.00
6078;DHT22;3067;49.470;10.394;2024-03-22T01:51:55;6.60;63.00
6078;DHT22;3067;49.470;10.394;2024-03-22T01:54:23;6.60;63.10
6078;DHT22;3067;49.470;10.394;2024-03-22T01:56:49;6.60;63.20
6078;DHT22;3067;49.470;10.394;2024-03-22T01:59:16;6.60;62.90
6078;DHT22;3067;49.470;10.394;2024-03-22T02:01:43;6.60;62.60
6078;DHT22;3067;49.470;10.394;2024-03-22T02:04:10;6.50;62.60
6078;DHT22;3067;49.470;10.394;2024-03-22T02:06:36;6.50;62.60
6078;DHT22;3067;49.470;10.394;2024-03-22T02:09:03;6.50;62.60
6078;DHT22;3067;49.470;10.394;2024-03-22T02:11:32;6.50;62.60
6078;DHT22;3067;49.470;10.394;2024-03-22T02:13:59;6.40;62.70
6078;DHT22;3067;49.470;10.394;2024-03-22T02:16:25;6.40;62.90
6078;DHT22;3067;49.470;10.394;2024-03-22T02:18:52;6.40;62.90
6078;DHT22;3067;49.470;10.394;2024-03-22T02:21:18;6.40;62.90
6078;DHT22;3067;49.470;10.394;2024-03-22T02:23:46;6.30;62.70
6078;DHT22;3067;49.470;10.394;2024-03-22T02:26:12;6.30;62.50
6078;DHT22;3067;49.470;10.394;2024-03-22T02:28:39;6.30;62.50
6078;DHT22;3067;49.470;10.394;2024-03-22T02:31:05;6.30;62.40
6078;DHT22;3067;49.470;10.394;2024-03-22T02:33:32;6.20;62.30
6078;DHT22;3067;49.470;10.394;2024-03-22T02:35:58;6.20;62.00
6078;DHT22;3067;49.470;10.394;2024-03-22T02:38:26;6.10;62.10
6078;DHT22;3067;49.470;10.394;2024-03-22T02:40:53;6.10;62.00
6078;DHT22;3067;49.470;10.394;2024-03-22T02:43:20;6.00;62.10
6078;DHT22;3067;49.470;10.394;2024-03-22T02:45:47;6.00;62.30
6078;DHT22;3067;49.470;10.394;2024-03-22T02:48:14;5.90;62.30
6078;DHT22;3067;49.470;10.394;2024-03-22T02:50:40;5.90;62.30
6078;DHT22;3067;49.470;10.394;2024-03-22T02:53:08;5.80;62.30
6078;DHT22;3067;49.470;10.394;2024-03-22T02:55:37;5.70;62.10
6078;DHT22;3067;49.470;10.394;2024-03-22T02:58:06;5.70;62.70
6078;DHT22;3067;49.470;10.394;2024-03-22T03:00:36;5.60;62.60
6078;DHT22;3067;49.470;10.394;2024-03-22T03:03:04;5.60;62.70
6078;DHT22;3067;49.470;10.394;2024-03-22T03:05:30;5.50;62.80
6078;DHT22;3067;49.470;10.394;2024-03-22T03:07:57;5.50;63.00
6078;DHT22;3067;49.470;10.394;2024-03-22T03:10:23;5.50;63.40
6078;DHT22;3067;49.470;10.394;2024-03-22T03:12:50;5.50;63.50
6078;DHT22;3067;49.470;10.394;2024-03-22T03:15:18;5.50;63.20
6078;DHT22;3067;49.470;10.394;2024-03-22T03:17:45;5.50;63.00
6078;DHT22;3067;49.470;10.394;2024-03-22T03:20:11;5.50;63.20
6078;DHT22;3067;49.470;10.394;2024-03-22T03:22:39;5.50;63.30
6078;DHT22;3067;49.470;10.394;2024-03-22T03:25:06;5.50;63.30
6078;DHT22;3067;49.470;10.394;2024-03-22T03:27:33;5.40;63.20
6078;DHT22;3067;49.470;10.394;2024-03-22T03:30:00;5.40;63.00
6078;DHT22;3067;49.470;10.394;2024-03-22T03:32:28;5.30;62.80
6078;DHT22;3067;49.470;10.394;2024-03-22T03:34:54;5.30;62.70
6078;DHT22;3067;49.470;10.394;2024-03-22T03:37:21;5.30;62.70
6078;DHT22;3067;49.470;10.394;2024-03-22T03:39:47;5.30;62.90
6078;DHT22;3067;49.470;10.394;2024-03-22T03:42:14;5.30;62.90
6078;DHT22;3067;49.470;10.394;2024-03-22T03:44:40;5.20;63.00
6078;DHT22;3067;49.470;10.394;2024-03-22T03:47:08;5.20;63.00
6078;DHT22;3067;49.470;10.394;2024-03-22T03:49:36;5.20;62.90
6078;DHT22;3067;49.470;10.394;2024-03-22T03:52:03;5.10;63.00
6078;DHT22;3067;49.470;10.394;2024-03-22T03:54:29;5.10;63.20
6078;DHT22;3067;49.470;10.394;2024-03-22T03:56:56;5.10;63.30
6078;DHT22;3067;49.470;10.394;2024-03-22T03:59:22;5.00;63.40
6078;DHT22;3067;49.470;10.394;2024-03-22T04:01:49;5.00;63.30
6078;DHT22;3067;49.470;10.394;2024-03-22T04:04:15;5.00;63.20
6078;DHT22;3067;49.470;10.394;2024-03-22T04:06:45;5.00;63.20
6078;DHT22;3067;49.470;10.394;2024-03-22T04:09:11;5.00;63.00
6078;DHT22;3067;49.470;10.394;2024-03-22T04:11:38;5.00;63.00
6078;DHT22;3067;49.470;10.394;2024-03-22T04:14:04;5.00;63.20
6078;DHT22;3067;49.470;10.394;2024-03-22T04:16:31;5.00;63.20
6078;DHT22;3067;49.470;10.394;2024-03-22T04:18:57;5.00;63.20
6078;DHT22;3067;49.470;10.394;2024-03-22T04:21:24;4.90;63.30
6078;DHT22;3067;49.470;10.394;2024-03-22T04:23:52;4.90;63.70
6078;DHT22;3067;49.470;10.394;2024-03-22T04:26:19;4.90;63.80
6078;DHT22;3067;49.470;10.394;2024-03-22T04:28:45;4.90;64.00
6078;DHT22;3067;49.470;10.394;2024-03-22T04:31:12;4.90;64.20
6078;DHT22;3067;49.470;10.394;2024-03-22T04:33:38;4.90;64.10
6078;DHT22;3067;49.470;10.394;2024-03-22T04:36:06;4.90;64.10
6078;DHT22;3067;49.470;10.394;2024-03-22T04:38:32;4.90;64.20
6078;DHT22;3067;49.470;10.394;2024-03-22T04:41:00;4.80;64.00
6078;DHT22;3067;49.470;10.394;2024-03-22T04:43:28;4.70;64.00
6078;DHT22;3067;49.470;10.394;2024-03-22T04:45:54;4.70;64.20
6078;DHT22;3067;49.470;10.394;2024-03-22T04:48:22;4.70;64.30
6078;DHT22;3067;49.470;10.394;2024-03-22T04:50:48;4.70;64.20
6078;DHT22;3067;49.470;10.394;2024-03-22T04:53:16;4.70;64.20
6078;DHT22;3067;49.470;10.394;2024-03-22T04:55:43;4.70;63.90
6078;DHT22;3067;49.470;10.394;2024-03-22T04:58:13;4.70;63.80
6078;DHT22;3067;49.470;10.394;2024-03-22T05:00:39;4.70;64.00
6078;DHT22;3067;49.470;10.394;2024-03-22T05:03:06;4.70;64.10
6078;DHT22;3067;49.470;10.394;2024-03-22T05:05:34;4.60;64.40
6078;DHT22;3067;49.470;10.394;2024-03-22T05:08:01;4.60;64.40
6078;DHT22;3067;49.470;10.394;2024-03-22T05:10:28;4.60;64.30
6078;DHT22;3067;49.470;10.394;2024-03-22T05:12:55;4.50;64.30
6078;DHT22;3067;49.470;10.394;2024-03-22T05:15:23;4.50;64.30
6078;DHT22;3067;49.470;10.394;2024-03-22T05:17:51;4.50;64.40
6078;DHT22;3067;49.470;10.394;2024-03-22T05:20:17;4.50;64.70
6078;DHT22;3067;49.470;10.394;2024-03-22T05:22:44;4.40;64.80
6078;DHT22;3067;49.470;10.394;2024-03-22T05:25:10;4.40;65.10
6078;DHT22;3067;49.470;10.394;2024-03-22T05:27:38;4.50;65.30
6078;DHT22;3067;49.470;10.394;2024-03-22T05:30:05;4.50;65.50
6078;DHT22;3067;49.470;10.394;2024-03-22T05:32:34;4.50;65.50
6078;DHT22;3067;49.470;10.394;2024-03-22T05:35:00;4.50;65.80
6078;DHT22;3067;49.470;10.394;2024-03-22T05:37:27;4.50;65.50
6078;DHT22;3067;49.470;10.394;2024-03-22T05:39:53;4.50;65.70
6078;DHT22;3067;49.470;10.394;2024-03-22T05:42:20;4.60;65.70
6078;DHT22;3067;49.470;10.394;2024-03-22T05:44:47;4.60;65.90
6078;DHT22;3067;49.470;10.394;2024-03-22T05:47:14;4.70;65.90
6078;DHT22;3067;49.470;10.394;2024-03-22T05:49:42;4.70;65.90
6078;DHT22;3067;49.470;10.394;2024-03-22T05:52:09;4.70;65.90
6078;DHT22;3067;49.470;10.394;2024-03-22T05:54:35;4.80;65.90
6078;DHT22;3067;49.470;10.394;2024-03-22T05:57:02;4.80;65.90
6078;DHT22;3067;49.470;10.394;2024-03-22T05:59:30;4.90;66.00
6078;DHT22;3067;49.470;10.394;2024-03-22T06:01:57;4.90;66.00
6078;DHT22;3067;49.470;10.394;2024-03-22T06:04:23;5.00;66.10
6078;DHT22;3067;49.470;10.394;2024-03-22T06:06:52;5.00;66.20
6078;DHT22;3067;49.470;10.394;2024-03-22T06:09:18;5.10;66.30
6078;DHT22;3067;49.470;10.394;2024-03-22T06:11:49;5.20;66.20
6078;DHT22;3067;49.470;10.394;2024-03-22T06:14:15;5.30;66.00
6078;DHT22;3067;49.470;10.394;2024-03-22T06:16:42;5.40;66.00
6078;DHT22;3067;49.470;10.394;2024-03-22T06:19:08;5.50;65.80
6078;DHT22;3067;49.470;10.394;2024-03-22T06:21:36;5.60;65.80
6078;DHT22;3067;49.470;10.394;2024-03-22T06:24:03;5.70;65.80
6078;DHT22;3067;49.470;10.394;2024-03-22T06:26:30;5.90;65.80
6078;DHT22;3067;49.470;10.394;2024-03-22T06:28:56;6.00;65.90
6078;DHT22;3067;49.470;10.394;2024-03-22T06:31:23;6.10;66.00
6078;DHT22;3067;49.470;10.394;2024-03-22T06:33:49;6.30;66.30
6078;DHT22;3067;49.470;10.394;2024-03-22T06:36:16;6.50;67.00
6078;DHT22;3067;49.470;10.394;2024-03-22T06:38:44;6.70;67.30
6078;DHT22;3067;49.470;10.394;2024-03-22T06:41:12;6.80;67.40
6078;DHT22;3067;49.470;10.394;2024-03-22T06:43:38;6.90;67.70
6078;DHT22;3067;49.470;10.394;2024-03-22T06:46:06;7.00;67.30
6078;DHT22;3067;49.470;10.394;2024-03-22T06:48:32;7.10;67.20
6078;DHT22;3067;49.470;10.394;2024-03-22T06:50:59;7.20;67.20
6078;DHT22;3067;49.470;10.394;2024-03-22T06:53:25;7.20;67.30
6078;DHT22;3067;49.470;10.394;2024-03-22T06:55:52;7.40;67.30
6078;DHT22;3067;49.470;10.394;2024-03-22T06:58:20;7.50;67.30
6078;DHT22;3067;49.470;10.394;2024-03-22T07:00:47;7.50;66.80
6078;DHT22;3067;49.470;10.394;2024-03-22T07:03:13;7.60;66.50
6078;DHT22;3067;49.470;10.394;2024-03-22T07:05:40;7.60;66.10
6078;DHT22;3067;49.470;10.394;2024-03-22T07:08:06;7.80;66.10
6078;DHT22;3067;49.470;10.394;2024-03-22T07:10:33;7.80;66.20
6078;DHT22;3067;49.470;10.394;2024-03-22T07:12:59;8.00;66.00
6078;DHT22;3067;49.470;10.394;2024-03-22T07:15:28;8.00;65.90
6078;DHT22;3067;49.470;10.394;2024-03-22T07:17:55;8.10;65.70
6078;DHT22;3067;49.470;10.394;2024-03-22T07:20:22;8.20;65.60
6078;DHT22;3067;49.470;10.394;2024-03-22T07:22:48;8.30;65.60
6078;DHT22;3067;49.470;10.394;2024-03-22T07:25:15;8.40;65.70
6078;DHT22;3067;49.470;10.394;2024-03-22T07:27:41;8.40;66.00
6078;DHT22;3067;49.470;10.394;2024-03-22T07:30:09;8.60;65.90
6078;DHT22;3067;49.470;10.394;2024-03-22T07:32:37;8.60;65.90
6078;DHT22;3067;49.470;10.394;2024-03-22T07:35:04;8.80;65.80
6078;DHT22;3067;49.470;10.394;2024-03-22T07:37:30;8.90;65.90
6078;DHT22;3067;49.470;10.394;2024-03-22T07:39:57;9.00;66.70
6078;DHT22;3067;49.470;10.394;2024-03-22T07:42:24;9.00;67.10
6078;DHT22;3067;49.470;10.394;2024-03-22T07:44:51;9.20;67.30
6078;DHT22;3067;49.470;10.394;2024-03-22T07:47:17;9.20;67.20
6078;DHT22;3067;49.470;10.394;2024-03-22T07:49:45;9.40;67.00
6078;DHT22;3067;49.470;10.394;2024-03-22T07:52:11;9.40;67.30
6078;DHT22;3067;49.470;10.394;2024-03-22T07:54:38;9.60;66.80
6078;DHT22;3067;49.470;10.394;2024-03-22T07:57:04;9.70;66.70
6078;DHT22;3067;49.470;10.394;2024-03-22T07:59:32;9.80;66.00
6078;DHT22;3067;49.470;10.394;2024-03-22T08:01:58;10.00;66.00
6078;DHT22;3067;49.470;10.394;2024-03-22T08:04:25;10.00;65.50
6078;DHT22;3067;49.470;10.394;2024-03-22T08:06:52;10.10;65.50
6078;DHT22;3067;49.470;10.394;2024-03-22T08:09:19;10.20;65.80
6078;DHT22;3067;49.470;10.394;2024-03-22T08:11:45;10.30;65.20
6078;DHT22;3067;49.470;10.394;2024-03-22T08:14:13;10.40;65.30
6078;DHT22;3067;49.470;10.394;2024-03-22T08:16:39;10.60;65.20
6078;DHT22;3067;49.470;10.394;2024-03-22T08:19:06;10.80;64.80
6078;DHT22;3067;49.470;10.394;2024-03-22T08:21:32;11.10;65.30
6078;DHT22;3067;49.470;10.394;2024-03-22T08:24:01;11.40;64.30
6078;DHT22;3067;49.470;10.394;2024-03-22T08:26:27;11.70;61.90
6078;DHT22;3067;49.470;10.394;2024-03-22T08:28:54;12.00;60.70
6078;DHT22;3067;49.470;10.394;2024-03-22T08:31:20;12.10;60.10
6078;DHT22;3067;49.470;10.394;2024-03-22T08:33:51;12.20;58.10
6078;DHT22;3067;49.470;10.394;2024-03-22T08:36:17;12.10;58.60
6078;DHT22;3067;49.470;10.394;2024-03-22T08:38:44;12.10;58.40
6078;DHT22;3067;49.470;10.394;2024-03-22T08:41:11;12.10;58.70
6078;DHT22;3067;49.470;10.394;2024-03-22T08:43:38;12.10;58.70
6078;DHT22;3067;49.470;10.394;2024-03-22T08:46:04;12.10;57.60
6078;DHT22;3067;49.470;10.394;2024-03-22T08:48:32;12.10;58.20
6078;DHT22;3067;49.470;10.394;2024-03-22T08:50:57;12.20;58.00
6078;DHT22;3067;49.470;10.394;2024-03-22T08:53:24;12.20;58.70
6078;DHT22;3067;49.470;10.394;2024-03-22T08:55:51;12.20;58.90
6078;DHT22;3067;49.470;10.394;2024-03-22T08:58:19;12.30;59.00
6078;DHT22;3067;49.470;10.394;2024-03-22T09:00:45;12.40;58.90
6078;DHT22;3067;49.470;10.394;2024-03-22T09:03:12;12.50;58.30
6078;DHT22;3067;49.470;10.394;2024-03-22T09:05:40;12.50;58.30
6078;DHT22;3067;49.470;10.394;2024-03-22T09:08:06;12.70;58.30
6078;DHT22;3067;49.470;10.394;2024-03-22T09:10:34;12.80;58.20
6078;DHT22;3067;49.470;10.394;2024-03-22T09:13:00;13.00;57.90
6078;DHT22;3067;49.470;10.394;2024-03-22T09:15:29;13.10;58.20
6078;DHT22;3067;49.470;10.394;2024-03-22T09:17:55;13.30;58.00
6078;DHT22;3067;49.470;10.394;2024-03-22T09:20:22;13.50;56.70
6078;DHT22;3067;49.470;10.394;2024-03-22T09:22:48;13.60;56.80
6078;DHT22;3067;49.470;10.394;2024-03-22T09:25:16;13.80;56.00
6078;DHT22;3067;49.470;10.394;2024-03-22T09:27:42;13.90;56.10
6078;DHT22;3067;49.470;10.394;2024-03-22T09:30:09;14.10;55.50
6078;DHT22;3067;49.470;10.394;2024-03-22T09:32:37;14.20;54.70
6078;DHT22;3067;49.470;10.394;2024-03-22T09:35:06;14.40;54.10
6078;DHT22;3067;49.470;10.394;2024-03-22T09:37:32;14.60;51.70
6078;DHT22;3067;49.470;10.394;2024-03-22T09:39:59;14.70;49.70
6078;DHT22;3067;49.470;10.394;2024-03-22T09:42:26;14.80;49.50
6078;DHT22;3067;49.470;10.394;2024-03-22T09:44:56;14.90;50.50
6078;DHT22;3067;49.470;10.394;2024-03-22T09:47:24;15.00;49.60
6078;DHT22;3067;49.470;10.394;2024-03-22T09:49:54;15.20;49.30
6078;DHT22;3067;49.470;10.394;2024-03-22T09:52:22;15.30;48.20
6078;DHT22;3067;49.470;10.394;2024-03-22T09:54:49;15.30;47.70
6078;DHT22;3067;49.470;10.394;2024-03-22T09:57:17;15.30;48.60
6078;DHT22;3067;49.470;10.394;2024-03-22T09:59:45;15.30;48.60
6078;DHT22;3067;49.470;10.394;2024-03-22T10:02:12;15.30;48.70
6078;DHT22;3067;49.470;10.394;2024-03-22T10:04:40;15.20;48.60
6078;DHT22;3067;49.470;10.394;2024-03-22T10:07:08;15.20;48.00
6078;DHT22;3067;49.470;10.394;2024-03-22T10:09:36;15.20;48.00
6078;DHT22;3067;49.470;10.394;2024-03-22T10:12:02;15.10;47.40
6078;DHT22;3067;49.470;10.394;2024-03-22T10:14:30;15.00;47.20
6078;DHT22;3067;49.470;10.394;2024-03-22T10:16:57;15.10;48.00
6078;DHT22;3067;49.470;10.394;2024-03-22T10:19:24;15.20;47.10
6078;DHT22;3067;49.470;10.394;2024-03-22T10:21:59;15.20;47.70
6078;DHT22;3067;49.470;10.394;2024-03-22T10:24:28;15.20;48.10
6078;DHT22;3067;49.470;10.394;2024-03-22T10:26:54;15.30;46.30
6078;DHT22;3067;49.470;10.394;2024-03-22T10:29:22;15.40;46.40
6078;DHT22;3067;49.470;10.394;2024-03-22T10:31:49;15.50;46.10
6078;DHT22;3067;49.470;10.394;2024-03-22T10:34:16;15.60;45.30
6078;DHT22;3067;49.470;10.394;2024-03-22T10:36:44;15.80;45.50
6078;DHT22;3067;49.470;10.394;2024-03-22T10:39:13;16.00;44.90
6078;DHT22;3067;49.470;10.394;2024-03-22T10:41:42;16.10;45.30
6078;DHT22;3067;49.470;10.394;2024-03-22T15:12:25;16.70;41.50
6078;DHT22;3067;49.470;10.394;2024-03-22T15:14:52;16.70;41.30
6078;DHT22;3067;49.470;10.394;2024-03-22T15:17:18;16.60;41.00
6078;DHT22;3067;49.470;10.394;2024-03-22T15:19:48;16.50;40.50
6078;DHT22;3067;49.470;10.394;2024-03-22T15:22:14;16.40;41.20
6078;DHT22;3067;49.470;10.394;2024-03-22T16:36:24;15.60;45.60
6078;DHT22;3067;49.470;10.394;2024-03-22T16:38:51;15.60;46.40
6078;DHT22;3067;49.470;10.394;2024-03-22T16:41:17;15.60;46.80
6078;DHT22;3067;49.470;10.394;2024-03-22T16:43:44;15.60;46.80
6078;DHT22;3067;49.470;10.394;2024-03-22T16:46:10;15.60;46.60
6078;DHT22;3067;49.470;10.394;2024-03-22T16:48:37;15.60;45.90
6078;DHT22;3067;49.470;10.394;2024-03-22T16:51:04;15.60;45.80
6078;DHT22;3067;49.470;10.394;2024-03-22T16:53:32;15.50;44.40
6078;DHT22;3067;49.470;10.394;2024-03-22T16:55:58;15.30;43.90
6078;DHT22;3067;49.470;10.394;2024-03-22T16:58:26;15.30;44.00
6078;DHT22;3067;49.470;10.394;2024-03-22T17:00:52;15.30;42.90
6078;DHT22;3067;49.470;10.394;2024-03-22T17:03:20;15.20;42.90
6078;DHT22;3067;49.470;10.394;2024-03-22T17:05:46;15.20;42.90
6078;DHT22;3067;49.470;10.394;2024-03-22T17:08:13;15.10;42.70
6078;DHT22;3067;49.470;10.394;2024-03-22T17:10:42;15.00;42.80
6078;DHT22;3067;49.470;10.394;2024-03-22T17:13:09;15.00;43.00
6078;DHT22;3067;49.470;10.394;2024-03-22T17:15:35;15.00;43.00
6078;DHT22;3067;49.470;10.394;2024-03-22T17:18:03;15.00;43.30
6078;DHT22;3067;49.470;10.394;2024-03-22T17:20:30;15.00;43.70
6078;DHT22;3067;49.470;10.394;2024-03-22T17:22:59;15.00;44.20
6078;DHT22;3067;49.470;10.394;2024-03-22T17:25:25;15.00;44.50
6078;DHT22;3067;49.470;10.394;2024-03-22T17:27:53;15.00;44.90
6078;DHT22;3067;49.470;10.394;2024-03-22T17:30:19;15.00;45.20
6078;DHT22;3067;49.470;10.394;2024-03-22T17:32:46;15.00;44.90
6078;DHT22;3067;49.470;10.394;2024-03-22T17:35:13;15.00;45.10
6078;DHT22;3067;49.470;10.394;2024-03-22T17:37:40;14.80;45.00
6078;DHT22;3067;49.470;10.394;2024-03-22T17:40:08;14.70;45.10
6078;DHT22;3067;49.470;10.394;2024-03-22T17:42:36;14.70;45.50
6078;DHT22;3067;49.470;10.394;2024-03-22T17:45:04;14.70;45.70
6078;DHT22;3067;49.470;10.394;2024-03-22T17:47:31;14.70;45.80
6078;DHT22;3067;49.470;10.394;2024-03-22T17:49:57;14.60;45.60
6078;DHT22;3067;49.470;10.394;2024-03-22T17:52:25;14.60;45.90
6078;DHT22;3067;49.470;10.394;2024-03-22T17:54:51;14.60;46.30
6078;DHT22;3067;49.470;10.394;2024-03-22T17:57:18;14.50;46.20
6078;DHT22;3067;49.470;10.394;2024-03-22T17:59:45;14.50;46.50
6078;DHT22;3067;49.470;10.394;2024-03-22T18:02:13;14.50;46.60
6078;DHT22;3067;49.470;10.394;2024-03-22T18:04:39;14.50;46.80
6078;DHT22;3067;49.470;10.394;2024-03-22T18:07:06;14.50;46.90
6078;DHT22;3067;49.470;10.394;2024-03-22T18:09:32;14.50;46.90
6078;DHT22;3067;49.470;10.394;2024-03-22T18:11:59;14.50;47.10
6078;DHT22;3067;49.470;10.394;2024-03-22T18:14:26;14.50;47.20
6078;DHT22;3067;49.470;10.394;2024-03-22T18:16:54;14.50;47.30
6078;DHT22;3067;49.470;10.394;2024-03-22T18:19:22;14.50;47.30
6078;DHT22;3067;49.470;10.394;2024-03-22T18:21:49;14.50;47.10
6078;DHT22;3067;49.470;10.394;2024-03-22T18:24:19;14.50;47.20
6078;DHT22;3067;49.470;10.394;2024-03-22T18:26:46;14.50;47.30
6078;DHT22;3067;49.470;10.394;2024-03-22T18:29:12;14.50;47.30
6078;DHT22;3067;49.470;10.394;2024-03-22T18:31:39;14.60;47.10
6078;DHT22;3067;49.470;10.394;2024-03-22T18:34:06;14.50;46.90
6078;DHT22;3067;49.470;10.394;2024-03-22T18:36:34;14.50;47.30
6078;DHT22;3067;49.470;10.394;2024-03-22T18:39:00;14.60;47.50
6078;DHT22;3067;49.470;10.394;2024-03-22T18:41:27;14.60;47.70
6078;DHT22;3067;49.470;10.394;2024-03-22T18:43:53;14.70;47.80
6078;DHT22;3067;49.470;10.394;2024-03-22T18:46:21;14.70;47.30
6078;DHT22;3067;49.470;10.394;2024-03-22T18:48:47;14.80;47.60
6078;DHT22;3067;49.470;10.394;2024-03-22T18:51:14;14.90;47.70
6078;DHT22;3067;49.470;10.394;2024-03-22T18:53:42;14.90;47.60
6078;DHT22;3067;49.470;10.394;2024-03-22T18:56:09;14.90;47.80
6078;DHT22;3067;49.470;10.394;2024-03-22T18:58:37;14.90;47.60
6078;DHT22;3067;49.470;10.394;2024-03-22T19:01:04;14.90;47.60
6078;DHT22;3067;49.470;10.394;2024-03-22T19:03:30;14.90;47.60
6078;DHT22;3067;49.470;10.394;2024-03-22T19:05:57;14.90;47.90
6078;DHT22;3067;49.470;10.394;2024-03-22T19:08:23;14.90;48.00
6078;DHT22;3067;49.470;10.394;2024-03-22T19:10:52;14.90;48.10
6078;DHT22;3067;49.470;10.394;2024-03-22T19:13:19;14.90;48.20
6078;DHT22;3067;49.470;10.394;2024-03-22T19:15:53;14.90;48.40
6078;DHT22;3067;49.470;10.394;2024-03-22T19:18:20;14.90;48.40
6078;DHT22;3067;49.470;10.394;2024-03-22T19:20:47;14.90;48.30
6078;DHT22;3067;49.470;10.394;2024-03-22T19:23:15;14.90;48.40
6078;DHT22;3067;49.470;10.394;2024-03-22T19:25:41;14.90;48.40
6078;DHT22;3067;49.470;10.394;2024-03-22T19:28:10;14.90;48.30
6078;DHT22;3067;49.470;10.394;2024-03-22T19:30:36;14.90;48.30
6078;DHT22;3067;49.470;10.394;2024-03-22T19:33:03;14.90;48.40
6078;DHT22;3067;49.470;10.394;2024-03-22T19:35:31;14.80;48.40
6078;DHT22;3067;49.470;10.394;2024-03-22T19:37:58;14.80;48.60
6078;DHT22;3067;49.470;10.394;2024-03-22T19:40:24;14.80;48.60
6078;DHT22;3067;49.470;10.394;2024-03-22T19:42:52;14.80;48.70
6078;DHT22;3067;49.470;10.394;2024-03-22T19:45:19;14.80;48.60
6078;DHT22;3067;49.470;10.394;2024-03-22T19:47:46;14.70;48.70
6078;DHT22;3067;49.470;10.394;2024-03-22T19:50:12;14.70;48.80
6078;DHT22;3067;49.470;10.394;2024-03-22T19:52:39;14.60;48.90
6078;DHT22;3067;49.470;10.394;2024-03-22T19:55:06;14.60;49.00
6078;DHT22;3067;49.470;10.394;2024-03-22T19:57:33;14.50;49.10
6078;DHT22;3067;49.470;10.394;2024-03-22T19:59:59;14.50;49.30
6078;DHT22;3067;49.470;10.394;2024-03-22T20:02:28;14.40;49.20
6078;DHT22;3067;49.470;10.394;2024-03-22T20:04:54;14.40;49.30
6078;DHT22;3067;49.470;10.394;2024-03-22T20:07:21;14.40;49.50
6078;DHT22;3067;49.470;10.394;2024-03-22T20:09:47;14.40;49.20
6078;DHT22;3067;49.470;10.394;2024-03-22T20:12:14;14.40;49.10
6078;DHT22;3067;49.470;10.394;2024-03-22T20:14:40;14.20;49.30
6078;DHT22;3067;49.470;10.394;2024-03-22T20:17:08;14.10;49.50
6078;DHT22;3067;49.470;10.394;2024-03-22T20:19:37;14.00;49.50
6078;DHT22;3067;49.470;10.394;2024-03-22T20:22:04;13.90;49.80
6078;DHT22;3067;49.470;10.394;2024-03-22T20:24:30;13.90;50.00
6078;DHT22;3067;49.470;10.394;2024-03-22T20:26:58;13.90;50.10
6078;DHT22;3067;49.470;10.394;2024-03-22T20:29:24;13.80;50.00
6078;DHT22;3067;49.470;10.394;2024-03-22T20:31:51;13.70;50.30
6078;DHT22;3067;49.470;10.394;2024-03-22T20:34:17;13.60;50.50
6078;DHT22;3067;49.470;10.394;2024-03-22T20:36:45;13.70;50.40
